sensor_id;sensor_type;location;lat;lon;timestamp;P1;durP1;ratioP1;P2;durP2;ratioP2
70450;SDS011;58869;51.982;4.450;2023-07-31T00:00:01;13.73;;;10.62;;
70450;SDS011;58869;51.982;4.450;2023-07-31T00:02:29;13.73;;;10.74;;
70450;SDS011;58869;51.982;4.450;2023-07-31T00:04:54;13.63;;;10.69;;
70450;SDS011;58869;51.982;4.450;2023-07-31T00:07:20;12.44;;;10.11;;
70450;SDS011;58869;51.982;4.450;2023-07-31T00:10:01;12.31;;;10.07;;
70450;SDS011;58869;51.982;4.450;2023-07-31T00:12:44;12.32;;;10.14;;
70450;SDS011;58869;51.982;4.450;2023-07-31T00:18:34;11.86;;;9.82;;
70450;SDS011;58869;51.982;4.450;2023-07-31T00:21:14;12.91;;;10.66;;
70450;SDS011;58869;51.982;4.450;2023-07-31T00:23:43;12.83;;;10.73;;
70450;SDS011;58869;51.982;4.450;2023-07-31T00:29:08;14.07;;;11.39;;
70450;SDS011;58869;51.982;4.450;2023-07-31T00:34:28;13.44;;;11.15;;
70450;SDS011;58869;51.982;4.450;2023-07-31T00:37:05;12.85;;;10.94;;
70450;SDS011;58869;51.982;4.450;2023-07-31T00:39:41;14.38;;;11.56;;
70450;SDS011;58869;51.982;4.450;2023-07-31T00:42:06;15.09;;;12.25;;
70450;SDS011;58869;51.982;4.450;2023-07-31T00:44:41;14.23;;;11.91;;
70450;SDS011;58869;51.982;4.450;2023-07-31T00:47:12;15.48;;;12.47;;
70450;SDS011;58869;51.982;4.450;2023-07-31T00:49:41;13.37;;;11.05;;
70450;SDS011;58869;51.982;4.450;2023-07-31T00:52:09;12.62;;;10.38;;
70450;SDS011;58869;51.982;4.450;2023-07-31T00:54:41;11.78;;;9.77;;
70450;SDS011;58869;51.982;4.450;2023-07-31T00:57:10;10.88;;;9.30;;
70450;SDS011;58869;51.982;4.450;2023-07-31T00:59:51;10.47;;;9.14;;
70450;SDS011;58869;51.982;4.450;2023-07-31T01:02:17;10.40;;;8.88;;
70450;SDS011;58869;51.982;4.450;2023-07-31T01:04:43;9.14;;;7.86;;
70450;SDS011;58869;51.982;4.450;2023-07-31T01:10:15;8.00;;;7.09;;
70450;SDS011;58869;51.982;4.450;2023-07-31T01:13:11;8.88;;;7.87;;
70450;SDS011;58869;51.982;4.450;2023-07-31T01:15:43;10.18;;;8.92;;
70450;SDS011;58869;51.982;4.450;2023-07-31T01:58:29;11.92;;;10.10;;
70450;SDS011;58869;51.982;4.450;2023-07-31T02:00:55;12.30;;;10.41;;
70450;SDS011;58869;51.982;4.450;2023-07-31T02:06:20;11.45;;;10.08;;
70450;SDS011;58869;51.982;4.450;2023-07-31T02:09:14;13.08;;;11.16;;
70450;SDS011;58869;51.982;4.450;2023-07-31T02:11:49;14.08;;;11.77;;
70450;SDS011;58869;51.982;4.450;2023-07-31T02:14:18;12.99;;;10.85;;
70450;SDS011;58869;51.982;4.450;2023-07-31T02:16:43;15.11;;;12.26;;
70450;SDS011;58869;51.982;4.450;2023-07-31T02:19:09;13.49;;;11.30;;
70450;SDS011;58869;51.982;4.450;2023-07-31T02:21:37;12.63;;;10.71;;
70450;SDS011;58869;51.982;4.450;2023-07-31T02:24:12;12.94;;;11.01;;
70450;SDS011;58869;51.982;4.450;2023-07-31T02:26:37;12.87;;;10.87;;
70450;SDS011;58869;51.982;4.450;2023-07-31T02:29:12;12.43;;;10.70;;
70450;SDS011;58869;51.982;4.450;2023-07-31T02:31:40;11.30;;;9.79;;
70450;SDS011;58869;51.982;4.450;2023-07-31T02:34:40;11.06;;;9.71;;
70450;SDS011;58869;51.982;4.450;2023-07-31T02:37:08;11.50;;;10.19;;
70450;SDS011;58869;51.982;4.450;2023-07-31T02:39:50;11.44;;;10.35;;
70450;SDS011;58869;51.982;4.450;2023-07-31T02:42:16;11.04;;;10.36;;
70450;SDS011;58869;51.982;4.450;2023-07-31T02:44:44;10.43;;;9.72;;
70450;SDS011;58869;51.982;4.450;2023-07-31T02:47:21;10.99;;;9.93;;
70450;SDS011;58869;51.982;4.450;2023-07-31T02:49:47;10.48;;;9.33;;
70450;SDS011;58869;51.982;4.450;2023-07-31T02:52:18;10.77;;;9.29;;
70450;SDS011;58869;51.982;4.450;2023-07-31T02:55:04;10.94;;;9.47;;
70450;SDS011;58869;51.982;4.450;2023-07-31T02:57:53;10.58;;;9.06;;
70450;SDS011;58869;51.982;4.450;2023-07-31T03:00:19;10.69;;;9.24;;
70450;SDS011;58869;51.982;4.450;2023-07-31T03:02:47;10.56;;;9.16;;
70450;SDS011;58869;51.982;4.450;2023-07-31T03:05:12;10.20;;;8.88;;
70450;SDS011;58869;51.982;4.450;2023-07-31T03:07:38;10.80;;;9.28;;
70450;SDS011;58869;51.982;4.450;2023-07-31T03:10:04;10.69;;;9.23;;
70450;SDS011;58869;51.982;4.450;2023-07-31T03:12:30;10.61;;;9.17;;
70450;SDS011;58869;51.982;4.450;2023-07-31T03:14:56;10.42;;;8.90;;
70450;SDS011;58869;51.982;4.450;2023-07-31T03:17:31;10.04;;;8.74;;
70450;SDS011;58869;51.982;4.450;2023-07-31T03:20:02;10.79;;;9.37;;
70450;SDS011;58869;51.982;4.450;2023-07-31T03:22:30;10.21;;;9.15;;
70450;SDS011;58869;51.982;4.450;2023-07-31T03:25:16;10.04;;;8.91;;
70450;SDS011;58869;51.982;4.450;2023-07-31T03:27:42;11.35;;;9.74;;
70450;SDS011;58869;51.982;4.450;2023-07-31T03:30:07;10.27;;;8.96;;
70450;SDS011;58869;51.982;4.450;2023-07-31T03:32:36;10.31;;;8.95;;
70450;SDS011;58869;51.982;4.450;2023-07-31T03:35:01;9.82;;;8.58;;
70450;SDS011;58869;51.982;4.450;2023-07-31T03:40:17;9.49;;;8.31;;
70450;SDS011;58869;51.982;4.450;2023-07-31T03:46:47;8.86;;;8.13;;
70450;SDS011;58869;51.982;4.450;2023-07-31T03:49:25;9.10;;;8.32;;
70450;SDS011;58869;51.982;4.450;2023-07-31T03:51:51;8.07;;;7.28;;
70450;SDS011;58869;51.982;4.450;2023-07-31T03:54:16;7.39;;;6.71;;
70450;SDS011;58869;51.982;4.450;2023-07-31T03:56:42;6.83;;;6.25;;
70450;SDS011;58869;51.982;4.450;2023-07-31T03:59:10;5.42;;;5.10;;
70450;SDS011;58869;51.982;4.450;2023-07-31T04:01:39;4.41;;;4.17;;
70450;SDS011;58869;51.982;4.450;2023-07-31T04:07:20;4.03;;;3.80;;
70450;SDS011;58869;51.982;4.450;2023-07-31T04:12:48;4.79;;;4.61;;
70450;SDS011;58869;51.982;4.450;2023-07-31T04:19:23;3.76;;;3.56;;
70450;SDS011;58869;51.982;4.450;2023-07-31T04:21:49;3.76;;;3.61;;
70450;SDS011;58869;51.982;4.450;2023-07-31T04:24:15;3.93;;;3.85;;
70450;SDS011;58869;51.982;4.450;2023-07-31T04:26:41;3.69;;;3.63;;
70450;SDS011;58869;51.982;4.450;2023-07-31T04:29:09;3.58;;;3.53;;
70450;SDS011;58869;51.982;4.450;2023-07-31T04:31:39;3.92;;;3.86;;
70450;SDS011;58869;51.982;4.450;2023-07-31T04:34:22;4.01;;;4.01;;
70450;SDS011;58869;51.982;4.450;2023-07-31T04:40:11;4.24;;;4.24;;
70450;SDS011;58869;51.982;4.450;2023-07-31T04:43:05;4.29;;;4.29;;
70450;SDS011;58869;51.982;4.450;2023-07-31T04:45:34;4.78;;;4.78;;
70450;SDS011;58869;51.982;4.450;2023-07-31T04:47:59;4.90;;;4.88;;
70450;SDS011;58869;51.982;4.450;2023-07-31T04:50:25;5.03;;;5.02;;
70450;SDS011;58869;51.982;4.450;2023-07-31T04:53:00;5.20;;;5.18;;
70450;SDS011;58869;51.982;4.450;2023-07-31T04:55:30;5.34;;;5.30;;
70450;SDS011;58869;51.982;4.450;2023-07-31T05:08:26;4.74;;;4.72;;
70450;SDS011;58869;51.982;4.450;2023-07-31T05:30:53;3.29;;;3.29;;
70450;SDS011;58869;51.982;4.450;2023-07-31T05:39:41;2.75;;;2.74;;
70450;SDS011;58869;51.982;4.450;2023-07-31T05:52:05;2.93;;;2.92;;
70450;SDS011;58869;51.982;4.450;2023-07-31T06:20:13;1.98;;;1.96;;
70450;SDS011;58869;51.982;4.450;2023-07-31T06:25:27;1.94;;;1.91;;
70450;SDS011;58869;51.982;4.450;2023-07-31T06:28:00;1.61;;;1.59;;
70450;SDS011;58869;51.982;4.450;2023-07-31T06:47:24;1.33;;;1.33;;
70450;SDS011;58869;51.982;4.450;2023-07-31T06:57:31;1.41;;;1.41;;
70450;SDS011;58869;51.982;4.450;2023-07-31T07:19:10;1.28;;;1.28;;
70450;SDS011;58869;51.982;4.450;2023-07-31T07:24:34;1.29;;;1.29;;
70450;SDS011;58869;51.982;4.450;2023-07-31T07:27:10;1.35;;;1.35;;
70450;SDS011;58869;51.982;4.450;2023-07-31T07:29:38;1.51;;;1.51;;
70450;SDS011;58869;51.982;4.450;2023-07-31T07:32:10;1.64;;;1.64;;
70450;SDS011;58869;51.982;4.450;2023-07-31T07:40:18;1.39;;;1.39;;
70450;SDS011;58869;51.982;4.450;2023-07-31T07:42:52;1.21;;;1.21;;
70450;SDS011;58869;51.982;4.450;2023-07-31T07:57:15;1.33;;;1.33;;
70450;SDS011;58869;51.982;4.450;2023-07-31T08:00:02;1.41;;;1.41;;
70450;SDS011;58869;51.982;4.450;2023-07-31T08:03:09;1.31;;;1.31;;
70450;SDS011;58869;51.982;4.450;2023-07-31T08:12:02;1.18;;;1.18;;
70450;SDS011;58869;51.982;4.450;2023-07-31T08:17:52;1.08;;;1.08;;
70450;SDS011;58869;51.982;4.450;2023-07-31T08:23:36;1.15;;;1.15;;
70450;SDS011;58869;51.982;4.450;2023-07-31T08:40:09;1.03;;;1.03;;
70450;SDS011;58869;51.982;4.450;2023-07-31T08:42:52;0.88;;;0.88;;
70450;SDS011;58869;51.982;4.450;2023-07-31T08:45:41;1.59;;;1.59;;
70450;SDS011;58869;51.982;4.450;2023-07-31T08:54:18;2.29;;;2.24;;
70450;SDS011;58869;51.982;4.450;2023-07-31T08:56:59;2.22;;;2.12;;
70450;SDS011;58869;51.982;4.450;2023-07-31T08:59:35;2.54;;;2.35;;
70450;SDS011;58869;51.982;4.450;2023-07-31T09:02:21;3.02;;;2.79;;
70450;SDS011;58869;51.982;4.450;2023-07-31T09:05:08;2.89;;;2.62;;
70450;SDS011;58869;51.982;4.450;2023-07-31T09:07:43;3.15;;;2.82;;
70450;SDS011;58869;51.982;4.450;2023-07-31T09:10:18;3.57;;;3.11;;
70450;SDS011;58869;51.982;4.450;2023-07-31T09:12:43;3.25;;;2.83;;
70450;SDS011;58869;51.982;4.450;2023-07-31T09:57:13;2.37;;;2.29;;
70450;SDS011;58869;51.982;4.450;2023-07-31T10:00:15;2.11;;;2.09;;
70450;SDS011;58869;51.982;4.450;2023-07-31T10:02:45;2.15;;;2.15;;
70450;SDS011;58869;51.982;4.450;2023-07-31T10:08:27;2.14;;;2.14;;
70450;SDS011;58869;51.982;4.450;2023-07-31T10:15:09;2.29;;;2.29;;
70450;SDS011;58869;51.982;4.450;2023-07-31T10:17:56;2.62;;;2.61;;
70450;SDS011;58869;51.982;4.450;2023-07-31T10:20:24;2.62;;;2.56;;
70450;SDS011;58869;51.982;4.450;2023-07-31T10:23:06;3.08;;;2.97;;
70450;SDS011;58869;51.982;4.450;2023-07-31T10:25:38;3.38;;;3.24;;
70450;SDS011;58869;51.982;4.450;2023-07-31T10:28:07;3.86;;;3.63;;
70450;SDS011;58869;51.982;4.450;2023-07-31T10:30:36;3.65;;;3.32;;
70450;SDS011;58869;51.982;4.450;2023-07-31T10:36:28;3.85;;;3.45;;
70450;SDS011;58869;51.982;4.450;2023-07-31T10:52:38;3.85;;;3.37;;
70450;SDS011;58869;51.982;4.450;2023-07-31T11:05:02;3.94;;;3.29;;
70450;SDS011;58869;51.982;4.450;2023-07-31T11:14:12;3.35;;;2.85;;
70450;SDS011;58869;51.982;4.450;2023-07-31T11:17:10;3.13;;;2.71;;
70450;SDS011;58869;51.982;4.450;2023-07-31T11:19:39;3.52;;;3.02;;
70450;SDS011;58869;51.982;4.450;2023-07-31T11:25:06;3.83;;;3.21;;
70450;SDS011;58869;51.982;4.450;2023-07-31T11:27:41;3.52;;;3.02;;
70450;SDS011;58869;51.982;4.450;2023-07-31T11:30:20;3.74;;;3.20;;
70450;SDS011;58869;51.982;4.450;2023-07-31T11:50:10;3.15;;;2.92;;
70450;SDS011;58869;51.982;4.450;2023-07-31T11:52:38;3.04;;;2.88;;
70450;SDS011;58869;51.982;4.450;2023-07-31T11:55:15;3.14;;;2.95;;
70450;SDS011;58869;51.982;4.450;2023-07-31T11:57:42;3.20;;;3.09;;
70450;SDS011;58869;51.982;4.450;2023-07-31T12:11:19;2.68;;;2.63;;
70450;SDS011;58869;51.982;4.450;2023-07-31T12:33:31;3.29;;;3.29;;
70450;SDS011;58869;51.982;4.450;2023-07-31T12:39:17;3.51;;;3.51;;
70450;SDS011;58869;51.982;4.450;2023-07-31T13:44:49;1.07;;;1.07;;
70450;SDS011;58869;51.982;4.450;2023-07-31T13:59:13;0.87;;;0.87;;
70450;SDS011;58869;51.982;4.450;2023-07-31T14:01:49;0.70;;;0.70;;
70450;SDS011;58869;51.982;4.450;2023-07-31T14:04:33;0.82;;;0.82;;
70450;SDS011;58869;51.982;4.450;2023-07-31T14:37:42;0.80;;;0.80;;
70450;SDS011;58869;51.982;4.450;2023-07-31T14:42:59;0.78;;;0.78;;
70450;SDS011;58869;51.982;4.450;2023-07-31T14:45:43;0.80;;;0.80;;
70450;SDS011;58869;51.982;4.450;2023-07-31T14:48:27;0.70;;;0.70;;
70450;SDS011;58869;51.982;4.450;2023-07-31T14:54:13;0.59;;;0.59;;
70450;SDS011;58869;51.982;4.450;2023-07-31T14:56:48;0.58;;;0.58;;
70450;SDS011;58869;51.982;4.450;2023-07-31T14:59:55;0.75;;;0.75;;
70450;SDS011;58869;51.982;4.450;2023-07-31T15:02:52;0.88;;;0.88;;
70450;SDS011;58869;51.982;4.450;2023-07-31T15:05:30;0.88;;;0.88;;
70450;SDS011;58869;51.982;4.450;2023-07-31T15:07:59;0.95;;;0.95;;
70450;SDS011;58869;51.982;4.450;2023-07-31T15:10:31;1.01;;;1.01;;
70450;SDS011;58869;51.982;4.450;2023-07-31T15:22:09;1.22;;;1.22;;
70450;SDS011;58869;51.982;4.450;2023-07-31T15:27:42;0.96;;;0.96;;
70450;SDS011;58869;51.982;4.450;2023-07-31T15:30:17;0.98;;;0.98;;
70450;SDS011;58869;51.982;4.450;2023-07-31T15:32:58;1.03;;;1.03;;
70450;SDS011;58869;51.982;4.450;2023-07-31T15:35:24;0.85;;;0.85;;
70450;SDS011;58869;51.982;4.450;2023-07-31T15:37:51;0.84;;;0.84;;
70450;SDS011;58869;51.982;4.450;2023-07-31T15:46:14;0.78;;;0.78;;
70450;SDS011;58869;51.982;4.450;2023-07-31T15:52:21;0.84;;;0.84;;
70450;SDS011;58869;51.982;4.450;2023-07-31T15:58:19;0.99;;;0.99;;
70450;SDS011;58869;51.982;4.450;2023-07-31T16:00:50;1.08;;;1.08;;
70450;SDS011;58869;51.982;4.450;2023-07-31T16:03:31;1.05;;;1.05;;
70450;SDS011;58869;51.982;4.450;2023-07-31T16:05:57;1.04;;;1.04;;
70450;SDS011;58869;51.982;4.450;2023-07-31T16:09:19;1.34;;;1.34;;
70450;SDS011;58869;51.982;4.450;2023-07-31T16:15:06;0.96;;;0.96;;
70450;SDS011;58869;51.982;4.450;2023-07-31T16:20:45;0.85;;;0.85;;
70450;SDS011;58869;51.982;4.450;2023-07-31T16:23:20;0.78;;;0.78;;
70450;SDS011;58869;51.982;4.450;2023-07-31T16:25:49;0.99;;;0.99;;
70450;SDS011;58869;51.982;4.450;2023-07-31T16:28:33;0.95;;;0.95;;
70450;SDS011;58869;51.982;4.450;2023-07-31T16:31:08;0.93;;;0.92;;
70450;SDS011;58869;51.982;4.450;2023-07-31T16:33:46;1.28;;;1.20;;
70450;SDS011;58869;51.982;4.450;2023-07-31T16:36:36;1.44;;;1.32;;
70450;SDS011;58869;51.982;4.450;2023-07-31T16:39:02;2.00;;;1.76;;
70450;SDS011;58869;51.982;4.450;2023-07-31T16:41:36;2.17;;;1.83;;
70450;SDS011;58869;51.982;4.450;2023-07-31T16:44:02;2.44;;;2.05;;
70450;SDS011;58869;51.982;4.450;2023-07-31T16:46:36;2.54;;;2.05;;
70450;SDS011;58869;51.982;4.450;2023-07-31T16:49:01;2.69;;;2.17;;
70450;SDS011;58869;51.982;4.450;2023-07-31T16:51:28;2.52;;;2.03;;
70450;SDS011;58869;51.982;4.450;2023-07-31T16:54:00;2.66;;;2.16;;
70450;SDS011;58869;51.982;4.450;2023-07-31T16:56:26;2.98;;;2.42;;
70450;SDS011;58869;51.982;4.450;2023-07-31T16:58:51;3.13;;;2.53;;
70450;SDS011;58869;51.982;4.450;2023-07-31T17:01:17;2.82;;;2.23;;
70450;SDS011;58869;51.982;4.450;2023-07-31T17:03:57;3.13;;;2.44;;
70450;SDS011;58869;51.982;4.450;2023-07-31T17:06:27;3.14;;;2.43;;
70450;SDS011;58869;51.982;4.450;2023-07-31T17:08:53;3.60;;;2.74;;
70450;SDS011;58869;51.982;4.450;2023-07-31T17:11:19;2.78;;;2.14;;
70450;SDS011;58869;51.982;4.450;2023-07-31T17:13:47;2.87;;;2.21;;
70450;SDS011;58869;51.982;4.450;2023-07-31T17:16:12;3.08;;;2.42;;
70450;SDS011;58869;51.982;4.450;2023-07-31T17:18:38;3.32;;;2.64;;
70450;SDS011;58869;51.982;4.450;2023-07-31T17:21:03;3.22;;;2.55;;
70450;SDS011;58869;51.982;4.450;2023-07-31T17:23:29;3.05;;;2.41;;
70450;SDS011;58869;51.982;4.450;2023-07-31T17:25:54;3.45;;;2.69;;
70450;SDS011;58869;51.982;4.450;2023-07-31T17:28:40;3.48;;;2.59;;
70450;SDS011;58869;51.982;4.450;2023-07-31T17:31:09;3.95;;;2.94;;
70450;SDS011;58869;51.982;4.450;2023-07-31T17:33:37;4.13;;;3.09;;
70450;SDS011;58869;51.982;4.450;2023-07-31T17:36:03;3.51;;;2.66;;
70450;SDS011;58869;51.982;4.450;2023-07-31T17:38:40;3.63;;;2.78;;
70450;SDS011;58869;51.982;4.450;2023-07-31T17:41:21;3.55;;;2.71;;
70450;SDS011;58869;51.982;4.450;2023-07-31T17:44:02;4.35;;;3.22;;
70450;SDS011;58869;51.982;4.450;2023-07-31T17:46:27;3.67;;;2.77;;
70450;SDS011;58869;51.982;4.450;2023-07-31T17:49:02;3.86;;;2.92;;
70450;SDS011;58869;51.982;4.450;2023-07-31T17:51:31;4.07;;;3.06;;
70450;SDS011;58869;51.982;4.450;2023-07-31T17:53:58;3.87;;;2.92;;
70450;SDS011;58869;51.982;4.450;2023-07-31T17:56:43;4.26;;;3.16;;
70450;SDS011;58869;51.982;4.450;2023-07-31T18:02:01;4.29;;;3.08;;
70450;SDS011;58869;51.982;4.450;2023-07-31T18:04:38;4.42;;;3.19;;
70450;SDS011;58869;51.982;4.450;2023-07-31T18:07:04;4.09;;;3.04;;
70450;SDS011;58869;51.982;4.450;2023-07-31T18:09:50;4.19;;;3.12;;
70450;SDS011;58869;51.982;4.450;2023-07-31T18:12:26;3.80;;;2.91;;
70450;SDS011;58869;51.982;4.450;2023-07-31T18:18:19;3.97;;;3.04;;
70450;SDS011;58869;51.982;4.450;2023-07-31T18:20:45;3.76;;;2.83;;
70450;SDS011;58869;51.982;4.450;2023-07-31T18:23:22;4.07;;;3.05;;
70450;SDS011;58869;51.982;4.450;2023-07-31T18:25:57;4.16;;;3.12;;
70450;SDS011;58869;51.982;4.450;2023-07-31T18:28:28;4.41;;;3.38;;
70450;SDS011;58869;51.982;4.450;2023-07-31T18:33:40;4.14;;;3.11;;
70450;SDS011;58869;51.982;4.450;2023-07-31T18:36:13;3.99;;;2.99;;
70450;SDS011;58869;51.982;4.450;2023-07-31T18:38:43;3.65;;;2.81;;
70450;SDS011;58869;51.982;4.450;2023-07-31T18:47:15;2.31;;;2.05;;
70450;SDS011;58869;51.982;4.450;2023-07-31T18:52:44;2.20;;;2.02;;
70450;SDS011;58869;51.982;4.450;2023-07-31T19:01:53;2.13;;;2.04;;
70450;SDS011;58869;51.982;4.450;2023-07-31T19:10:37;2.28;;;2.18;;
70450;SDS011;58869;51.982;4.450;2023-07-31T20:06:43;3.45;;;2.91;;
70450;SDS011;58869;51.982;4.450;2023-07-31T20:09:27;3.50;;;2.95;;
70450;SDS011;58869;51.982;4.450;2023-07-31T20:11:59;3.28;;;2.79;;
70450;SDS011;58869;51.982;4.450;2023-07-31T20:14:28;3.35;;;2.80;;
70450;SDS011;58869;51.982;4.450;2023-07-31T20:17:10;3.44;;;2.86;;
70450;SDS011;58869;51.982;4.450;2023-07-31T20:19:45;2.91;;;2.43;;
70450;SDS011;58869;51.982;4.450;2023-07-31T20:22:16;3.05;;;2.60;;
70450;SDS011;58869;51.982;4.450;2023-07-31T20:24:44;3.18;;;2.65;;
70450;SDS011;58869;51.982;4.450;2023-07-31T20:27:17;3.17;;;2.60;;
70450;SDS011;58869;51.982;4.450;2023-07-31T20:30:16;3.25;;;2.66;;
70450;SDS011;58869;51.982;4.450;2023-07-31T20:32:42;3.43;;;2.84;;
70450;SDS011;58869;51.982;4.450;2023-07-31T20:35:16;3.38;;;2.81;;
70450;SDS011;58869;51.982;4.450;2023-07-31T20:41:42;3.07;;;2.53;;
70450;SDS011;58869;51.982;4.450;2023-07-31T20:47:18;3.12;;;2.58;;
70450;SDS011;58869;51.982;4.450;2023-07-31T20:49:43;3.01;;;2.52;;
70450;SDS011;58869;51.982;4.450;2023-07-31T20:52:09;3.31;;;2.78;;
70450;SDS011;58869;51.982;4.450;2023-07-31T20:54:35;3.33;;;2.79;;
70450;SDS011;58869;51.982;4.450;2023-07-31T20:57:02;3.08;;;2.58;;
70450;SDS011;58869;51.982;4.450;2023-07-31T20:59:33;3.33;;;2.72;;
70450;SDS011;58869;51.982;4.450;2023-07-31T21:02:17;3.24;;;2.69;;
70450;SDS011;58869;51.982;4.450;2023-07-31T21:04:45;3.29;;;2.76;;
70450;SDS011;58869;51.982;4.450;2023-07-31T21:07:17;3.04;;;2.61;;
70450;SDS011;58869;51.982;4.450;2023-07-31T21:09:43;2.95;;;2.49;;
70450;SDS011;58869;51.982;4.450;2023-07-31T21:12:12;3.16;;;2.64;;
70450;SDS011;58869;51.982;4.450;2023-07-31T21:14:41;3.08;;;2.61;;
70450;SDS011;58869;51.982;4.450;2023-07-31T21:17:35;3.43;;;2.90;;
70450;SDS011;58869;51.982;4.450;2023-07-31T21:20:22;3.31;;;2.79;;
70450;SDS011;58869;51.982;4.450;2023-07-31T21:22:49;3.56;;;2.91;;
70450;SDS011;58869;51.982;4.450;2023-07-31T21:25:17;3.38;;;2.82;;
70450;SDS011;58869;51.982;4.450;2023-07-31T21:27:45;3.49;;;2.94;;
70450;SDS011;58869;51.982;4.450;2023-07-31T21:30:11;3.43;;;2.89;;
70450;SDS011;58869;51.982;4.450;2023-07-31T21:32:37;3.20;;;2.71;;
70450;SDS011;58869;51.982;4.450;2023-07-31T21:35:03;2.89;;;2.50;;
70450;SDS011;58869;51.982;4.450;2023-07-31T21:37:39;2.41;;;2.19;;
70450;SDS011;58869;51.982;4.450;2023-07-31T21:40:05;2.73;;;2.57;;
70450;SDS011;58869;51.982;4.450;2023-07-31T21:42:31;2.44;;;2.34;;
70450;SDS011;58869;51.982;4.450;2023-07-31T21:44:59;2.48;;;2.37;;
70450;SDS011;58869;51.982;4.450;2023-07-31T21:47:24;2.55;;;2.47;;
70450;SDS011;58869;51.982;4.450;2023-07-31T21:49:56;2.34;;;2.28;;
70450;SDS011;58869;51.982;4.450;2023-07-31T21:52:22;2.55;;;2.50;;
70450;SDS011;58869;51.982;4.450;2023-07-31T21:54:50;2.27;;;2.25;;
70450;SDS011;58869;51.982;4.450;2023-07-31T21:57:15;2.45;;;2.41;;
70450;SDS011;58869;51.982;4.450;2023-07-31T21:59:43;2.31;;;2.27;;
70450;SDS011;58869;51.982;4.450;2023-07-31T22:02:08;2.30;;;2.27;;
70450;SDS011;58869;51.982;4.450;2023-07-31T22:04:43;2.26;;;2.23;;
70450;SDS011;58869;51.982;4.450;2023-07-31T22:07:19;2.24;;;2.21;;
70450;SDS011;58869;51.982;4.450;2023-07-31T22:09:48;2.32;;;2.28;;
70450;SDS011;58869;51.982;4.450;2023-07-31T22:12:26;2.52;;;2.46;;
70450;SDS011;58869;51.982;4.450;2023-07-31T22:14:55;2.42;;;2.37;;
70450;SDS011;58869;51.982;4.450;2023-07-31T22:17:21;2.39;;;2.37;;
70450;SDS011;58869;51.982;4.450;2023-07-31T22:19:53;2.49;;;2.46;;
70450;SDS011;58869;51.982;4.450;2023-07-31T22:22:18;2.38;;;2.35;;
70450;SDS011;58869;51.982;4.450;2023-07-31T22:24:44;2.38;;;2.35;;
70450;SDS011;58869;51.982;4.450;2023-07-31T22:27:19;2.31;;;2.27;;
70450;SDS011;58869;51.982;4.450;2023-07-31T22:29:45;2.79;;;2.74;;
70450;SDS011;58869;51.982;4.450;2023-07-31T22:32:11;2.58;;;2.51;;
70450;SDS011;58869;51.982;4.450;2023-07-31T22:34:37;2.60;;;2.53;;
70450;SDS011;58869;51.982;4.450;2023-07-31T22:40:01;2.82;;;2.76;;
70450;SDS011;58869;51.982;4.450;2023-07-31T22:42:27;3.07;;;2.96;;
70450;SDS011;58869;51.982;4.450;2023-07-31T22:45:18;3.06;;;2.90;;
70450;SDS011;58869;51.982;4.450;2023-07-31T22:47:43;3.15;;;2.94;;
70450;SDS011;58869;51.982;4.450;2023-07-31T22:50:19;3.28;;;3.05;;
70450;SDS011;58869;51.982;4.450;2023-07-31T22:52:44;3.30;;;3.05;;
70450;SDS011;58869;51.982;4.450;2023-07-31T22:55:11;3.66;;;3.38;;
70450;SDS011;58869;51.982;4.450;2023-07-31T22:57:39;3.58;;;3.36;;
70450;SDS011;58869;51.982;4.450;2023-07-31T23:00:14;3.60;;;3.38;;
70450;SDS011;58869;51.982;4.450;2023-07-31T23:02:40;3.60;;;3.37;;
70450;SDS011;58869;51.982;4.450;2023-07-31T23:05:05;3.58;;;3.26;;
70450;SDS011;58869;51.982;4.450;2023-07-31T23:07:31;3.50;;;3.24;;
70450;SDS011;58869;51.982;4.450;2023-07-31T23:09:57;3.97;;;3.71;;
70450;SDS011;58869;51.982;4.450;2023-07-31T23:12:32;4.14;;;3.85;;
70450;SDS011;58869;51.982;4.450;2023-07-31T23:14:57;4.03;;;3.79;;
70450;SDS011;58869;51.982;4.450;2023-07-31T23:17:33;4.33;;;4.08;;
70450;SDS011;58869;51.982;4.450;2023-07-31T23:19:59;4.27;;;4.07;;
70450;SDS011;58869;51.982;4.450;2023-07-31T23:22:24;4.37;;;4.21;;
70450;SDS011;58869;51.982;4.450;2023-07-31T23:24:56;4.07;;;3.94;;
70450;SDS011;58869;51.982;4.450;2023-07-31T23:27:22;3.88;;;3.81;;
70450;SDS011;58869;51.982;4.450;2023-07-31T23:29:51;3.93;;;3.86;;
70450;SDS011;58869;51.982;4.450;2023-07-31T23:32:17;3.93;;;3.85;;
70450;SDS011;58869;51.982;4.450;2023-07-31T23:34:52;4.34;;;4.20;;
70450;SDS011;58869;51.982;4.450;2023-07-31T23:37:24;4.15;;;4.00;;
70450;SDS011;58869;51.982;4.450;2023-07-31T23:39:49;4.01;;;3.86;;
70450;SDS011;58869;51.982;4.450;2023-07-31T23:42:16;3.93;;;3.79;;
70450;SDS011;58869;51.982;4.450;2023-07-31T23:44:42;4.15;;;4.00;;
70450;SDS011;58869;51.982;4.450;2023-07-31T23:47:15;4.39;;;4.26;;
70450;SDS011;58869;51.982;4.450;2023-07-31T23:49:40;4.30;;;4.19;;
70450;SDS011;58869;51.982;4.450;2023-07-31T23:52:07;4.50;;;4.38;;
70450;SDS011;58869;51.982;4.450;2023-07-31T23:54:33;4.60;;;4.48;;
70450;SDS011;58869;51.982;4.450;2023-07-31T23:57:07;4.63;;;4.53;;
70450;SDS011;58869;51.982;4.450;2023-07-31T23:59:32;4.78;;;4.63;;
